Search for airport 
image banner adimage banner adimage banner ad
image banner ad

PA91 - Kane Community Hospital

Located in Kane, United States

ICAO - PA91, IATA -

Data provided by Airmate  

General information

Coordinates: N41°40'16" W78°49'4"
Elevation is 2008 feet MSL.
Magnetic variation is -10° East
View others Airports in Pennsylvania

Operational data

Special qualification required
Current time UTC:
Current local time:
Weather at : KBFD - Bradford Rgnl ( 21 km )
METAR: KBFD 071153Z AUTO 00000KT 10SM OVC055 04/M03 A2989 RMK AO2 SLP126 T00441028 10044 20011 53001
TAF: KBFD 071127Z 0712/0812 17007KT P6SM VCSH BKN035 OVC070 FM071400 16006KT 4SM -RA BR OVC025 FM071600 VRB04KT 3SM -RA BR OVC015 FM080100 26007KT P6SM BKN009 FM080900 28007KT 5SM -SHRA BR OVC009
View NOTAMs / SUP AIP / TFR affecting this airport [VIEW]
Communications frequencies: [VIEW]

Runways:

Airport contact information

Address: Kane United States

Satellite view of PA91